Time;durP1;ratioP1;P1;durP2;ratioP2;P2;SDS_P1;SDS_P2;PMS_P1;PMS_P2;Temp;Humidity;BMP_temperature;BMP_pressure;BME280_temperature;BME280_humidity;BME280_pressure;Samples;Min_cycle;Max_cycle;Signal;HPM_P1;HPM_P2
2021/09/11 00:01:29;;;;;;;13.37;12.00;;;;;;;20.22;77.75;100982.38;5059130;28;20197;-69
2021/09/11 00:03:55;;;;;;;13.60;12.30;;;;;;;20.25;77.38;100976.13;5059100;28;20174;-64
2021/09/11 00:06:20;;;;;;;12.83;11.63;;;;;;;20.16;78.18;100972.84;5059455;28;20173;-66
2021/09/11 00:08:45;;;;;;;12.63;11.53;;;;;;;19.83;79.57;100975.41;5059287;28;20166;-65
2021/09/11 00:11:11;;;;;;;12.77;11.20;;;;;;;19.58;80.64;100974.25;5059477;28;20219;-64
2021/09/11 00:13:38;;;;;;;12.23;11.10;;;;;;;20.13;79.10;100978.22;5058987;28;20177;-66
2021/09/11 00:16:04;;;;;;;12.63;11.37;;;;;;;19.76;79.95;100979.09;5059181;28;20493;-65
2021/09/11 00:18:30;;;;;;;13.53;12.33;;;;;;;19.87;79.71;100978.00;5059278;28;20429;-65
2021/09/11 00:20:55;;;;;;;13.03;11.73;;;;;;;19.99;79.26;100985.63;5058949;28;20805;-64
2021/09/11 00:23:21;;;;;;;12.43;11.23;;;;;;;19.83;80.22;100980.72;5058780;28;20519;-65
2021/09/11 00:25:46;;;;;;;12.23;11.13;;;;;;;19.90;79.83;100981.44;5059128;28;20208;-65
2021/09/11 00:28:11;;;;;;;13.10;11.87;;;;;;;19.88;80.02;100977.09;5058794;28;20456;-65
2021/09/11 00:30:36;;;;;;;13.07;11.73;;;;;;;19.46;81.59;100986.03;5058802;28;20431;-65
2021/09/11 00:33:02;;;;;;;12.77;11.40;;;;;;;19.70;80.71;100989.84;5059324;28;20165;-67
2021/09/11 00:35:27;;;;;;;14.57;13.17;;;;;;;19.57;80.96;100978.69;5058437;28;20177;-65
2021/09/11 00:37:52;;;;;;;15.23;13.63;;;;;;;19.63;80.52;100983.84;5058823;28;20209;-64
2021/09/11 00:40:18;;;;;;;13.07;11.87;;;;;;;19.75;80.35;100974.72;5058765;28;20473;-65
2021/09/11 00:42:47;;;;;;;15.10;13.60;;;;;;;20.00;79.45;100976.78;5058706;28;20169;-68
2021/09/11 00:45:17;;;;;;;14.57;13.17;;;;;;;19.72;80.43;100977.44;5058417;28;20205;-67
2021/09/11 00:47:42;;;;;;;15.20;13.70;;;;;;;19.77;79.81;100980.84;5059147;28;20448;-66
2021/09/11 00:50:09;;;;;;;15.63;14.03;;;;;;;19.55;80.94;100975.19;5040243;28;20538;-66
2021/09/11 00:52:34;;;;;;;20.70;17.03;;;;;;;19.62;80.74;100978.56;5039131;28;20189;-67
2021/09/11 00:55:00;;;;;;;16.20;14.53;;;;;;;19.56;81.17;100968.16;5040448;28;20412;-66
2021/09/11 00:57:26;;;;;;;18.23;16.20;;;;;;;19.80;80.28;100974.63;5039839;28;20178;-66
2021/09/11 00:59:53;;;;;;;19.53;16.50;;;;;;;19.80;79.99;100970.22;5038318;28;20220;-66
2021/09/11 01:02:18;;;;;;;18.57;16.57;;;;;;;19.94;79.66;100976.94;5038004;28;20388;-67
2021/09/11 01:04:43;;;;;;;18.40;16.17;;;;;;;19.87;79.81;100964.78;5038231;28;20716;-66
2021/09/11 01:07:08;;;;;;;19.10;17.10;;;;;;;19.68;80.74;100967.84;5038233;28;20540;-66
2021/09/11 01:09:34;;;;;;;19.27;16.80;;;;;;;19.94;80.31;100964.56;5037132;28;20182;-65
2021/09/11 01:12:00;;;;;;;22.33;20.03;;;;;;;19.88;79.61;100966.50;5040759;28;20547;-66
2021/09/11 01:14:25;;;;;;;21.83;18.93;;;;;;;20.02;79.16;100974.97;5037101;28;20520;-67
2021/09/11 01:16:50;;;;;;;21.30;19.17;;;;;;;19.86;80.11;100985.06;5037752;28;20158;-66
2021/09/11 01:19:16;;;;;;;21.43;19.33;;;;;;;19.71;80.67;100977.50;5038368;28;20178;-66
2021/09/11 01:21:41;;;;;;;22.33;20.03;;;;;;;19.71;80.68;100988.91;5037567;28;20250;-65
2021/09/11 01:24:06;;;;;;;23.27;20.17;;;;;;;19.40;81.75;100994.94;5038301;28;20170;-65
2021/09/11 01:26:32;;;;;;;24.63;22.13;;;;;;;19.45;82.01;101000.13;5038161;28;20174;-66
2021/09/11 01:28:57;;;;;;;23.53;21.03;;;;;;;19.38;82.11;100998.56;5038232;28;20400;-66
2021/09/11 01:31:23;;;;;;;23.23;20.80;;;;;;;19.38;82.64;100998.56;5038539;28;20155;-66
2021/09/11 01:33:48;;;;;;;25.60;22.67;;;;;;;19.47;81.92;100995.66;5038014;28;20170;-66
2021/09/11 01:36:13;;;;;;;24.80;20.60;;;;;;;19.31;82.57;101003.09;5038021;28;20224;-66
2021/09/11 01:38:39;;;;;;;29.60;23.77;;;;;;;19.13;84.11;100996.44;5038460;28;20178;-67
2021/09/11 01:41:04;;;;;;;24.20;21.67;;;;;;;19.26;82.76;100997.03;5037982;28;20174;-66
2021/09/11 01:43:31;;;;;;;26.57;22.20;;;;;;;19.17;83.57;101004.28;5037879;28;20162;-66
2021/09/11 01:45:57;;;;;;;28.07;23.33;;;;;;;19.48;82.51;101005.34;5038434;28;20209;-66
2021/09/11 01:48:22;;;;;;;28.00;22.97;;;;;;;19.41;81.94;101004.63;5037931;28;20428;-66
2021/09/11 01:50:48;;;;;;;29.73;20.90;;;;;;;19.47;81.99;100996.56;5041293;28;20424;-67
2021/09/11 01:53:13;;;;;;;27.50;21.33;;;;;;;19.28;82.53;101004.03;5046065;28;20201;-66
2021/09/11 01:55:38;;;;;;;27.43;22.57;;;;;;;19.44;81.99;101007.19;5047115;28;20220;-66
2021/09/11 01:58:03;;;;;;;27.63;23.13;;;;;;;19.12;83.43;101008.78;5045205;28;20596;-65
2021/09/11 02:00:30;;;;;;;27.43;22.43;;;;;;;19.68;80.52;101004.88;5043184;28;20235;-66
2021/09/11 02:02:55;;;;;;;24.67;21.90;;;;;;;19.65;81.20;100997.88;5041464;28;20193;-67
2021/09/11 02:05:20;;;;;;;27.87;21.47;;;;;;;19.80;80.40;100998.44;5038279;28;20488;-66
2021/09/11 02:07:46;;;;;;;22.23;19.47;;;;;;;19.59;80.83;101000.69;5038305;28;20186;-66
2021/09/11 02:10:12;;;;;;;26.17;22.67;;;;;;;19.76;80.46;100999.41;5037744;28;20171;-65
2021/09/11 02:12:37;;;;;;;25.10;21.13;;;;;;;19.68;80.52;100997.81;5039772;28;20181;-66
2021/09/11 02:15:03;;;;;;;25.13;20.87;;;;;;;19.44;81.42;100999.25;5046064;28;20690;-66
2021/09/11 02:17:29;;;;;;;25.20;21.10;;;;;;;19.46;81.21;101001.88;5045016;28;20407;-65
2021/09/11 02:19:54;;;;;;;20.43;18.20;;;;;;;19.55;80.84;101000.78;5041137;28;20415;-66
2021/09/11 02:22:19;;;;;;;25.20;21.30;;;;;;;19.69;80.67;101001.34;5038184;28;20166;-66
2021/09/11 02:24:44;;;;;;;25.07;20.10;;;;;;;19.51;80.78;101005.25;5037482;28;20468;-66
2021/09/11 02:27:10;;;;;;;26.77;22.73;;;;;;;19.54;81.47;100999.94;5039648;28;20166;-66
2021/09/11 02:29:35;;;;;;;25.70;22.10;;;;;;;19.66;80.68;101017.25;5041791;28;20213;-66
2021/09/11 02:32:01;;;;;;;30.37;22.30;;;;;;;19.40;81.88;101020.53;5041289;28;20257;-66
2021/09/11 02:34:28;;;;;;;26.97;21.83;;;;;;;19.56;81.26;101010.47;5041247;28;20526;-66
2021/09/11 02:36:54;;;;;;;28.93;21.83;;;;;;;19.43;82.03;101010.75;5040824;28;20467;-66
2021/09/11 02:39:19;;;;;;;29.03;23.60;;;;;;;19.51;81.17;101011.44;5040385;28;20417;-66
2021/09/11 02:41:44;;;;;;;31.83;25.23;;;;;;;19.52;81.60;101018.47;5040985;28;20257;-67
2021/09/11 02:44:10;;;;;;;32.50;24.53;;;;;;;19.66;80.95;101014.63;5041302;28;20184;-66
2021/09/11 02:46:35;;;;;;;34.17;24.67;;;;;;;19.53;81.10;101014.91;5040939;28;20185;-65
2021/09/11 02:49:00;;;;;;;30.63;24.63;;;;;;;19.63;81.40;101017.34;5040939;28;20213;-66
2021/09/11 02:51:26;;;;;;;34.53;24.80;;;;;;;19.59;80.91;101015.66;5058346;28;20509;-65
2021/09/11 02:53:52;;;;;;;31.50;25.70;;;;;;;19.86;80.41;101011.53;5072927;28;20184;-65
2021/09/11 02:56:17;;;;;;;35.83;26.63;;;;;;;19.22;82.19;101019.16;5053125;28;20415;-66
2021/09/11 02:58:43;;;;;;;35.47;27.37;;;;;;;19.27;82.72;101015.50;5053409;28;20248;-65
2021/09/11 03:01:08;;;;;;;32.30;26.07;;;;;;;19.41;82.08;101020.47;5060497;28;20193;-65
2021/09/11 03:03:33;;;;;;;36.60;25.60;;;;;;;19.24;82.73;101022.63;5060670;28;20523;-66
2021/09/11 03:05:59;;;;;;;37.10;26.83;;;;;;;19.46;81.95;101025.69;5060394;28;20201;-66
2021/09/11 03:08:25;;;;;;;34.17;25.30;;;;;;;19.44;81.64;101028.34;5060262;28;20175;-66
2021/09/11 03:10:50;;;;;;;35.73;26.53;;;;;;;19.55;81.46;101025.44;5059378;28;20171;-65
2021/09/11 03:13:15;;;;;;;33.43;26.70;;;;;;;19.37;81.89;101024.09;5040408;28;20265;-65
2021/09/11 03:15:41;;;;;;;32.00;24.40;;;;;;;19.76;80.10;101020.56;5040257;28;20507;-66
2021/09/11 03:18:06;;;;;;;40.87;27.17;;;;;;;19.98;79.39;101018.28;5040640;28;20178;-66
2021/09/11 03:20:31;;;;;;;38.83;27.10;;;;;;;19.66;80.55;101014.63;5040178;28;20217;-66
2021/09/11 03:22:57;;;;;;;36.90;25.60;;;;;;;19.75;79.82;101019.69;5040293;28;20225;-66
2021/09/11 03:25:22;;;;;;;33.93;23.93;;;;;;;19.68;80.17;101018.97;5040425;28;20461;-66
2021/09/11 03:27:47;;;;;;;34.20;23.47;;;;;;;19.66;80.00;101018.16;5040009;28;20170;-67
2021/09/11 03:30:13;;;;;;;34.20;25.57;;;;;;;19.69;80.29;101020.72;5040085;28;20170;-66
2021/09/11 03:32:38;;;;;;;36.47;25.73;;;;;;;19.56;81.04;101027.19;5058776;28;20235;-66
2021/09/11 03:35:04;;;;;;;33.87;24.20;;;;;;;19.74;79.74;101017.97;5060006;28;20169;-67
2021/09/11 03:37:29;;;;;;;41.10;24.73;;;;;;;19.79;79.58;101016.06;5062289;28;20161;-68
2021/09/11 03:39:55;;;;;;;39.70;27.23;;;;;;;19.66;80.23;101011.97;5062052;28;20208;-68
2021/09/11 03:42:20;;;;;;;32.50;23.93;;;;;;;19.82;79.28;101008.09;5062489;28;20177;-68
2021/09/11 03:44:46;;;;;;;38.00;25.30;;;;;;;19.77;79.82;101011.72;5042978;28;20468;-67
2021/09/11 03:47:11;;;;;;;39.70;26.33;;;;;;;19.94;78.52;101006.03;5038769;28;20174;-67
2021/09/11 03:49:36;;;;;;;36.63;25.77;;;;;;;20.13;78.55;101004.69;5039398;28;20175;-65
2021/09/11 03:52:02;;;;;;;42.57;27.47;;;;;;;19.86;79.82;101006.22;5039737;28;20430;-67
2021/09/11 03:54:27;;;;;;;41.07;27.67;;;;;;;19.82;79.91;101005.47;5039874;28;20173;-67
2021/09/11 03:56:52;;;;;;;47.50;29.60;;;;;;;19.79;79.92;101010.75;5039534;28;20174;-67
2021/09/11 03:59:18;;;;;;;42.93;26.77;;;;;;;19.82;79.92;101015.16;5039571;28;20236;-67
2021/09/11 04:01:43;;;;;;;46.10;29.70;;;;;;;19.79;79.99;101015.19;5040042;28;20205;-66
2021/09/11 04:04:08;;;;;;;49.40;32.20;;;;;;;19.59;81.26;101018.31;5039227;28;20439;-66
2021/09/11 04:06:33;;;;;;;46.17;30.10;;;;;;;19.77;80.66;101023.19;5039471;28;20177;-66
2021/09/11 04:08:59;;;;;;;54.20;32.27;;;;;;;19.71;80.72;101025.97;5039908;28;20247;-66
2021/09/11 04:11:24;;;;;;;49.17;30.40;;;;;;;19.59;81.81;101029.78;5039720;28;20444;-67
2021/09/11 04:13:49;;;;;;;52.83;32.00;;;;;;;19.69;80.91;101031.28;5039238;28;20238;-66
2021/09/11 04:16:15;;;;;;;56.70;34.17;;;;;;;19.74;81.31;101032.94;5039699;28;20177;-66
2021/09/11 04:18:40;;;;;;;55.30;32.40;;;;;;;19.69;81.21;101031.28;5039147;28;20471;-67
2021/09/11 04:21:06;;;;;;;58.57;32.10;;;;;;;19.61;81.94;101024.47;5040067;28;20174;-66
2021/09/11 04:23:31;;;;;;;55.17;32.80;;;;;;;19.60;81.52;101025.34;5039366;28;20219;-66
2021/09/11 04:25:56;;;;;;;62.50;36.50;;;;;;;19.91;81.06;101027.31;5039022;28;20206;-65
2021/09/11 04:28:21;;;;;;;61.73;35.97;;;;;;;19.80;80.98;101028.41;5039002;28;20251;-66
2021/09/11 04:30:47;;;;;;;57.37;34.97;;;;;;;19.67;81.68;101032.22;5039249;28;20174;-65
2021/09/11 04:33:12;;;;;;;68.40;37.37;;;;;;;19.89;80.91;101023.81;5038961;28;20547;-66
2021/09/11 04:35:37;;;;;;;67.73;36.03;;;;;;;19.81;81.42;101029.31;5038842;28;20184;-65
2021/09/11 04:38:03;;;;;;;67.37;37.37;;;;;;;19.72;81.50;101033.00;5039382;28;20536;-65
2021/09/11 04:40:28;;;;;;;66.83;36.50;;;;;;;19.63;82.47;101033.22;5038644;28;20170;-65
2021/09/11 04:42:54;;;;;;;73.73;37.90;;;;;;;19.56;82.38;101031.63;5039174;28;20210;-65
2021/09/11 04:45:20;;;;;;;68.00;38.07;;;;;;;19.84;81.20;101029.22;5038931;28;20194;-65
2021/09/11 04:47:45;;;;;;;59.97;36.17;;;;;;;19.75;81.50;101030.25;5038620;28;20865;-67
2021/09/11 04:50:10;;;;;;;66.43;36.53;;;;;;;19.92;80.73;101029.03;5038521;28;20218;-66
2021/09/11 04:52:36;;;;;;;63.17;34.37;;;;;;;19.88;80.67;101030.00;5039027;28;20170;-65
2021/09/11 04:55:01;;;;;;;65.07;37.20;;;;;;;19.83;81.03;101025.69;5038535;28;20209;-67
2021/09/11 04:57:26;;;;;;;64.80;35.83;;;;;;;20.07;79.95;101023.34;5038271;28;20500;-67
2021/09/11 04:59:52;;;;;;;73.87;38.50;;;;;;;19.98;80.09;101028.88;5038720;28;20170;-66
2021/09/11 05:02:17;;;;;;;80.93;41.23;;;;;;;20.06;79.75;101029.56;5038405;28;20524;-66
2021/09/11 05:04:42;;;;;;;72.17;40.33;;;;;;;19.98;80.48;101031.53;5038330;28;20236;-66
2021/09/11 05:07:08;;;;;;;76.03;39.17;;;;;;;20.04;80.16;101028.72;5038715;28;20182;-66
2021/09/11 05:09:33;;;;;;;75.03;38.63;;;;;;;19.93;80.08;101018.41;5038281;28;20257;-66
2021/09/11 05:12:03;;;;;;;72.43;36.03;;;;;;;19.93;80.16;101023.72;5041201;28;20180;-66
2021/09/11 05:14:28;;;;;;;64.00;38.10;;;;;;;20.21;79.31;101025.63;5053652;28;20208;-66
2021/09/11 05:16:54;;;;;;;71.47;38.87;;;;;;;20.25;78.87;101029.94;5058183;28;20424;-66
2021/09/11 05:19:19;;;;;;;66.00;37.13;;;;;;;19.86;79.90;101032.69;5058021;28;20197;-66
2021/09/11 05:21:44;;;;;;;57.30;34.33;;;;;;;20.29;78.40;101030.75;5058429;28;20527;-66
2021/09/11 05:24:10;;;;;;;63.00;36.33;;;;;;;20.11;78.95;101026.81;5058017;28;20182;-66
2021/09/11 05:26:35;;;;;;;69.97;36.40;;;;;;;20.00;79.60;101024.44;5058127;28;20184;-66
2021/09/11 05:29:00;;;;;;;77.53;39.10;;;;;;;20.24;79.24;101030.00;5058405;28;20169;-66
2021/09/11 05:31:27;;;;;;;67.03;35.80;;;;;;;20.15;79.06;101031.97;5057920;28;20169;-66
2021/09/11 05:33:52;;;;;;;67.47;36.70;;;;;;;19.97;80.09;101035.06;5057954;28;20324;-66
2021/09/11 05:36:17;;;;;;;60.20;34.97;;;;;;;20.04;79.56;101044.63;5058474;28;20415;-66
2021/09/11 05:38:43;;;;;;;75.67;38.03;;;;;;;20.09;79.03;101036.53;5057922;28;20531;-66
2021/09/11 05:41:08;;;;;;;75.40;37.97;;;;;;;20.04;79.49;101041.97;5057729;28;20182;-66
2021/09/11 05:43:33;;;;;;;85.00;38.60;;;;;;;20.37;78.70;101044.66;5057924;28;20170;-65
2021/09/11 05:45:59;;;;;;;72.13;37.23;;;;;;;20.03;79.95;101046.38;5057747;28;20213;-66
2021/09/11 05:48:24;;;;;;;87.30;40.40;;;;;;;19.84;80.54;101051.25;5057791;28;20227;-66
2021/09/11 05:50:49;;;;;;;75.40;40.23;;;;;;;19.92;79.72;101044.91;5058201;28;20184;-66
2021/09/11 05:53:15;;;;;;;84.43;39.50;;;;;;;20.14;79.14;101042.59;5057703;28;20177;-67
2021/09/11 05:55:40;;;;;;;74.00;38.70;;;;;;;19.75;80.69;101050.56;5057762;28;20193;-66
2021/09/11 05:58:05;;;;;;;73.57;37.10;;;;;;;20.09;79.25;101040.06;5057883;28;20225;-66
2021/09/11 06:00:30;;;;;;;63.00;38.00;;;;;;;19.65;79.82;101045.50;5057641;28;20193;-67
2021/09/11 06:02:56;;;;;;;56.93;35.33;;;;;;;20.39;78.54;101053.44;5061266;28;20590;-67
2021/09/11 06:05:21;;;;;;;61.07;34.57;;;;;;;20.12;78.58;101058.53;5061388;28;20244;-66
2021/09/11 06:07:46;;;;;;;57.90;34.80;;;;;;;20.14;78.88;101053.19;5061701;28;20180;-66
2021/09/11 06:10:12;;;;;;;55.70;34.10;;;;;;;19.76;80.05;101058.47;5061758;28;20174;-67
2021/09/11 06:12:37;;;;;;;54.57;32.37;;;;;;;20.08;78.81;101054.22;5061404;28;20169;-66
2021/09/11 06:15:05;;;;;;;52.50;33.57;;;;;;;20.06;78.84;101060.44;5061514;28;20523;-66
2021/09/11 06:17:31;;;;;;;56.17;35.37;;;;;;;20.31;77.70;101060.69;5061925;28;20248;-66
2021/09/11 06:19:56;;;;;;;53.23;33.57;;;;;;;20.33;77.63;101053.59;5061306;28;20499;-66
2021/09/11 06:22:21;;;;;;;52.10;32.40;;;;;;;20.23;77.53;101052.97;5061880;28;20180;-68
2021/09/11 06:24:46;;;;;;;54.17;33.47;;;;;;;20.17;78.32;101054.00;5063924;28;20197;-67
2021/09/11 06:27:13;;;;;;;47.07;32.40;;;;;;;20.26;78.08;101050.22;5065521;28;20539;-67
2021/09/11 06:29:38;;;;;;;51.40;32.73;;;;;;;20.38;77.88;101051.69;5063193;28;20174;-66
2021/09/11 06:32:04;;;;;;;49.03;30.67;;;;;;;20.84;75.81;101055.75;5061737;28;20462;-68
2021/09/11 06:34:29;;;;;;;43.77;29.80;;;;;;;20.72;76.26;101055.25;5060942;28;20161;-66
2021/09/11 06:36:55;;;;;;;43.20;29.37;;;;;;;21.09;74.26;101054.19;5061121;28;20543;-66
2021/09/11 06:39:20;;;;;;;41.20;29.60;;;;;;;21.11;74.32;101053.22;5061425;28;20166;-66
2021/09/11 06:41:46;;;;;;;40.87;30.13;;;;;;;21.18;73.78;101048.63;5060891;28;20173;-66
2021/09/11 06:44:11;;;;;;;39.60;28.40;;;;;;;21.19;74.30;101056.53;5060805;28;20193;-66
2021/09/11 06:46:36;;;;;;;38.83;27.80;;;;;;;21.01;74.99;101057.06;5061172;28;20197;-67
2021/09/11 06:49:02;;;;;;;41.33;29.60;;;;;;;21.67;72.86;101046.28;5060815;28;20177;-67
2021/09/11 06:51:28;;;;;;;34.13;27.27;;;;;;;21.50;72.62;101047.63;5060824;28;20527;-67
2021/09/11 06:53:53;;;;;;;32.60;27.00;;;;;;;21.47;72.36;101049.50;5060242;28;20413;-67
2021/09/11 06:56:18;;;;;;;29.30;23.63;;;;;;;22.12;69.97;101051.00;5060680;28;20231;-67
2021/09/11 06:58:44;;;;;;;32.00;28.50;;;;;;;22.57;68.89;101046.84;5059774;28;20225;-67
2021/09/11 07:01:10;;;;;;;31.00;24.87;;;;;;;22.37;68.67;101063.47;5060846;28;20189;-66
2021/09/11 07:03:35;;;;;;;31.40;24.63;;;;;;;22.66;68.79;101050.94;5060627;28;20177;-66
2021/09/11 07:06:04;;;;;;;27.70;24.63;;;;;;;23.19;66.28;101053.44;5060521;28;20217;-66
2021/09/11 07:08:30;;;;;;;27.23;22.23;;;;;;;22.96;66.28;101056.06;5060772;28;20534;-66
2021/09/11 07:10:56;;;;;;;26.50;23.30;;;;;;;22.39;67.78;101061.63;5060248;28;20768;-68
2021/09/11 07:13:21;;;;;;;27.90;22.63;;;;;;;22.66;67.72;101056.25;5055944;28;20416;-66
2021/09/11 07:15:46;;;;;;;27.70;23.90;;;;;;;22.81;67.20;101058.38;5040629;28;20181;-66
2021/09/11 07:18:11;;;;;;;27.63;24.60;;;;;;;22.10;69.65;101062.59;5040324;28;20228;-66
2021/09/11 07:20:37;;;;;;;27.73;24.40;;;;;;;21.64;71.76;101068.47;5040188;28;20167;-66
2021/09/11 07:23:02;;;;;;;29.63;24.73;;;;;;;21.92;70.99;101069.34;5040713;28;20166;-66
2021/09/11 07:25:27;;;;;;;31.40;25.40;;;;;;;21.58;71.49;101071.31;5039975;28;20210;-68
2021/09/11 07:27:53;;;;;;;27.20;24.20;;;;;;;21.55;72.38;101074.03;5039617;28;20197;-66
2021/09/11 07:30:18;;;;;;;28.60;25.00;;;;;;;21.76;71.44;101077.81;5040489;28;20166;-67
2021/09/11 07:32:44;;;;;;;30.20;24.90;;;;;;;21.32;73.56;101077.38;5039956;28;20178;-67
2021/09/11 07:35:09;;;;;;;29.23;25.23;;;;;;;21.80;72.33;101082.13;5039802;28;20221;-66
2021/09/11 07:37:34;;;;;;;32.50;24.80;;;;;;;21.35;73.48;101083.47;5040239;28;20186;-67
2021/09/11 07:40:00;;;;;;;33.37;25.67;;;;;;;21.91;72.10;101076.47;5039867;28;20524;-66
2021/09/11 07:42:25;;;;;;;30.23;24.83;;;;;;;21.85;72.15;101074.88;5039961;28;20229;-66
2021/09/11 07:44:50;;;;;;;29.27;25.67;;;;;;;21.67;73.32;101071.00;5040001;28;20190;-67
2021/09/11 07:47:17;;;;;;;27.57;24.43;;;;;;;21.76;72.49;101077.81;5044066;28;20216;-65
2021/09/11 07:49:43;;;;;;;31.97;24.43;;;;;;;21.33;74.01;101073.81;5073449;28;20697;-66
2021/09/11 07:52:08;;;;;;;34.30;25.83;;;;;;;21.85;72.75;101079.31;5078417;28;20455;-66
2021/09/11 07:54:33;;;;;;;29.33;23.40;;;;;;;21.80;72.41;101071.50;5064219;28;20445;-68
2021/09/11 07:56:59;;;;;;;27.17;23.70;;;;;;;21.66;73.48;101077.25;5058873;28;20181;-68
2021/09/11 07:59:24;;;;;;;30.30;24.33;;;;;;;21.54;72.94;101088.22;5059423;28;20225;-68
2021/09/11 08:01:49;;;;;;;36.27;25.10;;;;;;;21.68;73.11;101085.16;5059389;28;20174;-67
2021/09/11 08:04:14;;;;;;;31.07;24.73;;;;;;;21.72;73.12;101085.91;5058991;28;20216;-67
2021/09/11 08:06:40;;;;;;;31.30;25.70;;;;;;;21.94;71.82;101091.44;5060277;28;20169;-67
2021/09/11 08:09:05;;;;;;;31.83;24.00;;;;;;;21.83;72.60;101103.25;5061015;28;20169;-68
2021/09/11 08:11:30;;;;;;;30.27;24.17;;;;;;;21.84;72.10;101094.38;5061975;28;20535;-67
2021/09/11 08:13:56;;;;;;;33.60;25.33;;;;;;;21.57;73.02;101084.59;5060545;28;20245;-67
2021/09/11 08:16:21;;;;;;;29.70;24.50;;;;;;;21.70;72.28;101086.84;5059306;28;20201;-66
2021/09/11 08:18:46;;;;;;;33.07;25.23;;;;;;;21.64;72.63;101092.34;5059389;28;20442;-66
2021/09/11 08:21:12;;;;;;;30.57;23.80;;;;;;;21.60;72.52;101103.97;5059519;28;20208;-66
2021/09/11 08:23:38;;;;;;;30.13;22.97;;;;;;;21.60;72.76;101097.78;5058506;28;20177;-69
2021/09/11 08:26:04;;;;;;;31.73;24.33;;;;;;;21.43;72.97;101103.56;5057940;28;20205;-71
2021/09/11 08:28:30;;;;;;;29.83;23.40;;;;;;;21.92;71.49;101096.78;5060323;28;20458;-68
2021/09/11 08:30:55;;;;;;;32.50;24.70;;;;;;;21.61;72.64;101103.06;5061768;28;20662;-68
2021/09/11 08:33:20;;;;;;;27.60;22.80;;;;;;;21.55;72.78;101105.88;5064512;28;20420;-67
2021/09/11 08:35:46;;;;;;;29.93;24.67;;;;;;;21.90;72.27;101108.38;5059701;28;20212;-68
2021/09/11 08:38:11;;;;;;;30.67;24.43;;;;;;;21.85;72.40;101117.34;5059294;28;20181;-68
2021/09/11 08:40:36;;;;;;;30.80;23.70;;;;;;;21.35;73.35;101120.59;5058807;28;20230;-67
2021/09/11 08:43:02;;;;;;;33.37;26.40;;;;;;;20.93;75.51;101115.59;5058904;28;20177;-68
2021/09/11 08:45:27;;;;;;;34.17;26.63;;;;;;;20.92;75.60;101128.88;5058409;28;20378;-68
2021/09/11 08:47:53;;;;;;;32.13;24.97;;;;;;;20.52;77.03;101134.28;5058637;28;20539;-68
2021/09/11 08:50:19;;;;;;;38.63;27.37;;;;;;;21.07;74.66;101131.13;5058731;28;20451;-68
2021/09/11 08:52:46;;;;;;;33.07;25.77;;;;;;;20.55;76.77;101137.78;5040991;28;20264;-68
2021/09/11 08:55:12;;;;;;;34.73;26.57;;;;;;;20.71;76.57;101132.97;5058412;28;20423;-68
2021/09/11 08:57:38;;;;;;;36.00;25.90;;;;;;;21.12;74.51;101133.63;5058571;28;20459;-70
2021/09/11 09:00:08;;;;;;;35.37;26.97;;;;;;;21.08;74.47;101142.56;5058224;28;20416;-69
2021/09/11 09:02:34;;;;;;;35.10;26.43;;;;;;;21.42;73.86;101141.59;5058213;28;20276;-67
2021/09/11 09:05:01;;;;;;;37.20;26.77;;;;;;;21.23;74.00;101136.84;5058112;28;20571;-68
2021/09/11 09:07:38;;;;;;;39.60;28.53;;;;;;;21.39;73.79;101139.06;5059262;28;20423;-69
2021/09/11 09:10:06;;;;;;;38.77;27.97;;;;;;;21.16;74.42;101140.56;5059686;28;20412;-70
2021/09/11 09:12:39;;;;;;;40.73;26.87;;;;;;;21.70;72.80;101139.03;5060351;28;20437;-68
2021/09/11 09:15:09;;;;;;;38.77;27.07;;;;;;;21.60;72.40;101126.97;5058408;28;20732;-69
2021/09/11 09:17:48;;;;;;;34.37;27.07;;;;;;;21.43;73.06;101141.56;5058258;28;20798;-68
2021/09/11 09:20:20;;;;;;;38.40;29.33;;;;;;;21.80;72.22;101140.50;5058114;28;20526;-67
2021/09/11 09:23:07;;;;;;;35.30;26.73;;;;;;;21.70;72.42;101142.56;5057948;28;20423;-66
2021/09/11 09:25:37;;;;;;;38.40;26.90;;;;;;;21.50;73.29;101143.13;5057426;28;20482;-66
2021/09/11 09:28:07;;;;;;;36.83;29.17;;;;;;;21.63;72.39;101143.66;5057819;28;20416;-66
2021/09/11 09:30:51;;;;;;;33.90;27.30;;;;;;;22.01;71.17;101140.75;5057881;28;20431;-65
2021/09/11 09:33:19;;;;;;;36.10;26.60;;;;;;;22.31;69.71;101138.00;5057996;28;20679;-67
2021/09/11 09:35:45;;;;;;;34.97;26.80;;;;;;;22.56;70.09;101137.22;5057823;28;20420;-65
2021/09/11 09:38:10;;;;;;;35.57;27.17;;;;;;;22.07;71.01;101135.25;5061973;28;20732;-65
2021/09/11 09:40:44;;;;;;;31.63;26.20;;;;;;;22.50;69.85;101130.31;5062329;28;20180;-65
2021/09/11 09:43:28;;;;;;;32.30;26.00;;;;;;;23.23;67.22;101131.31;5061126;28;20448;-69
2021/09/11 09:46:05;;;;;;;30.20;25.00;;;;;;;23.07;67.53;101127.44;5061966;28;20477;-68
2021/09/11 09:48:33;;;;;;;32.73;26.57;;;;;;;23.27;66.63;101129.41;5061634;28;20800;-68
2021/09/11 09:51:02;;;;;;;30.40;24.80;;;;;;;22.73;67.77;101131.31;5061814;28;20742;-69
2021/09/11 09:53:28;;;;;;;32.67;26.00;;;;;;;23.03;67.71;101129.38;5061045;28;20750;-68
2021/09/11 09:55:55;;;;;;;25.57;22.80;;;;;;;22.82;67.80;101129.19;5061758;28;20503;-70
2021/09/11 09:58:20;;;;;;;26.60;23.07;;;;;;;23.04;67.24;101128.44;5061496;28;20232;-68
2021/09/11 10:00:46;;;;;;;25.93;22.40;;;;;;;22.48;67.44;101125.06;5061651;28;20412;-68
2021/09/11 10:03:12;;;;;;;27.30;22.53;;;;;;;23.20;65.91;101129.66;5060885;28;20252;-68
2021/09/11 10:05:39;;;;;;;26.00;22.83;;;;;;;23.83;64.22;101117.53;5061219;28;20570;-67
2021/09/11 10:08:07;;;;;;;23.03;20.50;;;;;;;25.07;59.28;101113.19;5060898;28;20169;-68
2021/09/11 10:10:39;;;;;;;21.83;19.53;;;;;;;25.31;58.09;101111.22;5061145;28;20420;-67
2021/09/11 10:13:05;;;;;;;25.13;20.77;;;;;;;24.76;59.63;101113.72;5061262;28;20825;-67
2021/09/11 10:15:38;;;;;;;20.57;18.50;;;;;;;24.58;59.52;101120.69;5061542;28;20844;-67
2021/09/11 10:18:24;;;;;;;21.90;19.47;;;;;;;24.84;58.42;101112.44;5061205;28;20447;-66
2021/09/11 10:21:16;;;;;;;21.20;18.90;;;;;;;24.64;59.14;101121.31;5061228;28;20412;-66
2021/09/11 10:24:03;;;;;;;21.07;18.77;;;;;;;24.46;59.00;101116.75;5061140;28;20446;-66
2021/09/11 10:26:52;;;;;;;21.07;17.67;;;;;;;23.88;60.73;101126.16;5060940;28;20545;-66
2021/09/11 10:29:37;;;;;;;20.50;18.40;;;;;;;24.49;58.95;101119.25;5061111;28;20420;-66
2021/09/11 10:32:11;;;;;;;23.60;19.73;;;;;;;24.67;58.27;101123.00;5061116;28;20782;-66
2021/09/11 10:35:00;;;;;;;23.60;20.10;;;;;;;23.67;60.48;101118.09;5060921;28;20408;-66
2021/09/11 10:37:39;;;;;;;24.20;21.07;;;;;;;23.84;60.78;101120.13;5061101;28;20405;-66
2021/09/11 10:40:13;;;;;;;20.97;18.67;;;;;;;25.19;57.25;101118.00;5061062;28;20420;-67
2021/09/11 10:43:09;;;;;;;23.57;18.97;;;;;;;24.84;58.36;101117.78;5060881;28;20419;-68
2021/09/11 10:45:54;;;;;;;28.10;20.67;;;;;;;24.60;58.24;101113.47;5060430;28;20459;-68
2021/09/11 10:48:47;;;;;;;27.03;19.73;;;;;;;24.95;57.68;101106.63;5060504;28;20415;-68
2021/09/11 10:51:13;;;;;;;24.70;20.40;;;;;;;24.34;58.16;101103.00;5059985;28;20689;-69
2021/09/11 10:53:38;;;;;;;22.40;19.63;;;;;;;24.68;58.21;101114.91;5060482;28;20487;-67
2021/09/11 10:56:27;;;;;;;26.70;21.63;;;;;;;23.95;60.33;101116.16;5060460;28;20880;-68
2021/09/11 10:59:14;;;;;;;21.57;19.23;;;;;;;23.53;61.17;101113.34;5059814;28;20214;-69
2021/09/11 11:01:55;;;;;;;22.63;19.80;;;;;;;23.80;61.01;101105.19;5060256;28;20646;-69
2021/09/11 11:04:45;;;;;;;23.37;20.90;;;;;;;23.67;61.54;101112.78;5060287;28;20678;-69
2021/09/11 11:07:11;;;;;;;23.43;20.47;;;;;;;23.02;63.44;101111.69;5056624;28;20862;-70
2021/09/11 11:09:42;;;;;;;23.47;20.90;;;;;;;22.30;64.77;101121.22;5060323;28;20795;-69